• Join FlightAware (Why Join?)
  • Login
  • US Flag 
01:40AM EDT


 

Airport Tracker/Info


-or-


 

Live Flight TrackerFlight Track Log ✈ CTL78 ✈ 24/May/2013 ✈ KBKL - KPTK

Flight Track Log - Related Links

Times and Time Zones

All times are in EDT time to prevent confusion due to time zone crossing. See the CTL78 flight status page for this flight to view local times or setup timezone preferences in your user account.

Time Position Orientation Groundspeed Altitude Reporting Facility
EDT Latitude Longitude Course Direction KTS MPH feet Rate Location/Type
10:30PM 41.5461 -81.6956 290° West 135 155 2,000  Level Cleveland Center
10:31PM 41.5600 -81.7458 290° West 162 186 2,800 720 Climbing Cleveland Center
10:32PM 41.5783 -81.7989 295° West 150 173 3,500 540 Climbing Cleveland Center
10:33PM 41.5922 -81.8492 290° West 151 174 4,000 540 Climbing Cleveland Center
10:35PM 41.6125 -81.9078 295° West 148 170 4,700 540 Climbing Cleveland Center
10:35PM 41.6244 -81.9525 290° West 151 174 5,100 420 Climbing Cleveland Center
10:37PM 41.6447 -82.0086 296° West 154 177 5,600 420 Climbing Cleveland Center
10:38PM 41.6647 -82.0647 296° West 160 184 6,100 180 Climbing Cleveland Center
10:39PM 41.6828 -82.1233 292° West 166 191 6,000  Descending Cleveland Center
10:40PM 41.6986 -82.1767 292° West 165 190 6,100  Climbing Cleveland Center
10:41PM 41.7147 -82.2272 293° West 164 189 6,000  Descending Cleveland Center
10:42PM 41.7367 -82.2833 298° West 161 185 6,200  Climbing Cleveland Center
10:42PM 41.7528 -82.3311 294° West 161 185 6,100 -60 Descending Cleveland Center
10:43PM 41.7706 -82.3872 293° West 162 186 6,100  Level Cleveland Center
10:44PM 41.7883 -82.4461 292° West 165 190 6,100  Level Cleveland Center
10:45PM 41.8042 -82.5053 290° West 165 190 6,100  Level Cleveland Center
10:46PM 41.8242 -82.5614 296° West 166 191 6,100  Level Cleveland Center
10:47PM 41.8461 -82.6153 299° West 162 186 6,100  Level Cleveland Center
10:49PM 41.8869 -82.6556 324° Northwest 155 178 6,100  Level Cleveland Center
10:50PM 41.9239 -82.6931 323° Northwest 158 182 6,100  Level Cleveland Center
10:51PM 41.9608 -82.7278 325° Northwest 158 182 6,100  Level Cleveland Center
10:52PM 41.9956 -82.7569 328° Northwest 158 182 6,100  Level Cleveland Center
10:53PM 42.0344 -82.7917 326° Northwest 162 186 6,100  Level Cleveland Center
10:54PM 42.0733 -82.8294 324° Northwest 159 183 6,100  Level Cleveland Center
10:55PM 42.1103 -82.8642 325° Northwest 162 186 6,100  Level Cleveland Center
10:56PM 42.1472 -82.8992 325° Northwest 162 186 6,100  Level Cleveland Center
10:57PM 42.1842 -82.9286 329° Northwest 161 185 6,100  Level Cleveland Center
10:58PM 42.2231 -82.9581 331° Northwest 160 184 6,100  Level Cleveland Center
10:59PM 42.2639 -82.9989 324° Northwest 158 182 6,100  Level Cleveland Center
11:00PM 42.2986 -83.0256 330° Northwest 159 183 6,100 -300 Level Cleveland Center
11:01PM 42.3378 -83.0550 331° Northwest 162 186 5,600 -540 Descending Cleveland Center
11:02PM 42.3786 -83.0961 323° Northwest 175 201 5,100 -300 Descending Cleveland Center
11:03PM 42.4111 -83.1256 326° Northwest 156 180 5,100 -300 Level Cleveland Center
11:04PM 42.4500 -83.1664 322° Northwest 167 192 4,600 -540 Descending Cleveland Center
11:05PM 42.4847 -83.1989 325° Northwest 163 188 4,100 -780 Descending Cleveland Center
11:06PM 42.5233 -83.2400 322° Northwest 172 198 3,200 -660 Descending Cleveland Center
11:07PM 42.5539 -83.2667 327° Northwest 161 185 2,900 -420 Descending Cleveland Center
11:08PM 42.5906 -83.3047 323° Northwest 158 182 2,400 -360 Descending Cleveland Center
11:09PM 42.6231 -83.3428 319° Northwest 155 178 2,200 -360 Descending Cleveland Center
11:10PM 42.6636 -83.3842 323° Northwest 115 132 1,600 -480 Descending Cleveland Center
11:12PM 42.6500 -83.4167 304° West  Level FlightAware Approximate
11:19PM 42.6656 -83.4205 304° West  Level Estimated
11:20PM 42.6656 -83.4205 304° West  Level Estimated